Akron Fulton International Airport
KAKR : rendu visible

Aérodrome :











RETROUVEZ-NOUS SUR...

 
LOGIN :

S'inscrire | Disclaimer

   EN    FR    IT 

 









Légende :    VFR   VFR Marginal   IFR   IFR Intensif   IFR Très Intensif
Visi : 
Plafond : 
>= 8 km
>= 3000ft
5 à 8 km
1000 à 3000 ft
1500m à 5 km
500 à 1000 ft
800 à 1500m
200 à 500 ft
< 800m
< 200 ft
Symboles :   Orages  Brouillard  Fortes neiges  Fortes précipitations  Vent > 20 kt






- Altitude de l'aérodrome : 1067 ft


KAKR - Akron Fulton International

DERNIER METAR :
  • 190354Z AUTO 26015G23KT 10SM FEW016 OVC023 02/M02 A2972 RMK AO2 RAE03UPB03E48 SLP072 P0000 T00221017 $

METARs EXPIRÉS :
  • 190254Z AUTO 25013G20KT 10SM -RA BKN023 OVC031 03/M02 A2973 RMK AO2 RAB40 SLP074 P0000 60000 T00331017 50001 $
  • 190237Z AUTO 24012G19KT 10SM BKN028 OVC036 03/M02 A2973 RMK AO2 T00331017 $
  • 190216Z AUTO 25011G20KT 10SM SCT026 BKN032 OVC039 03/M02 A2974 RMK AO2 T00331017 $
  • 190201Z AUTO 25013G19KT 10SM BKN026 OVC036 03/M02 A2974 RMK AO2 T00331017 $
  • 190147Z AUTO 25012G19KT 10SM SCT028 OVC038 03/M02 A2974 RMK AO2 T00331017 $

TAF N/A



MET'MAP, la Météo Aéronautique d'un coup d'oeil ! - Copyright ORBIFLY Décembre 2007 - Disclaimer

ORBIFLY MET'MAP TEAM :

Programmation & Développement : Alexandra Zaïnal
Sur une idée originale de : Baudouin d'Aumeries
Assistance à la programmation : Marc-Olivier Méhu
Soutien technique & logistique : Manuel Goepfert

Contact : metmap@orbifly.com




SOURCES & CREDITS :

   NOAA       Earth
Advisory